createdAt,value
2019-06-20T00:01:12.487Z,6.50
2019-06-20T00:03:40.880Z,5.00
2019-06-20T00:06:09.299Z,5.08
2019-06-20T00:08:37.689Z,5.10
2019-06-20T00:11:06.185Z,5.40
2019-06-20T00:13:34.592Z,4.80
2019-06-20T00:16:03.803Z,4.65
2019-06-20T00:18:32.257Z,5.05
2019-06-20T00:21:00.676Z,5.30
2019-06-20T00:23:29.075Z,5.10
2019-06-20T00:25:57.478Z,5.30
2019-06-20T00:28:25.869Z,4.92
2019-06-20T00:30:54.274Z,5.25
2019-06-20T00:33:22.687Z,4.90
2019-06-20T00:35:51.077Z,5.20
2019-06-20T00:38:19.806Z,4.80
2019-06-20T00:40:48.215Z,5.20
2019-06-20T00:43:18.218Z,5.40
2019-06-20T00:45:46.736Z,5.20
2019-06-20T00:48:15.142Z,5.37
2019-06-20T00:50:44.053Z,4.82
2019-06-20T00:53:12.450Z,5.08
2019-06-20T00:55:40.853Z,5.47
2019-06-20T00:58:09.249Z,5.08
2019-06-20T01:00:37.808Z,4.75
2019-06-20T01:03:07.189Z,4.62
2019-06-20T01:05:35.601Z,5.58
2019-06-20T01:08:03.985Z,3.10
2019-06-20T01:10:32.391Z,4.50
2019-06-20T01:13:00.795Z,4.00
2019-06-20T01:15:29.215Z,4.03
2019-06-20T01:17:57.597Z,3.57
2019-06-20T01:20:26.343Z,3.75
2019-06-20T01:22:54.745Z,3.00
2019-06-20T01:25:37.143Z,3.42
2019-06-20T01:28:05.818Z,3.10
2019-06-20T01:30:34.217Z,2.77
2019-06-20T01:33:02.647Z,2.80
2019-06-20T01:35:31.038Z,2.55
2019-06-20T01:37:59.442Z,2.57
2019-06-20T01:40:27.877Z,2.50
2019-06-20T01:42:56.339Z,2.08
2019-06-20T01:45:24.825Z,2.42
2019-06-20T01:47:53.274Z,2.30
2019-06-20T01:50:21.758Z,2.25
2019-06-20T01:52:50.200Z,2.45
2019-06-20T01:55:18.595Z,2.33
2019-06-20T01:57:47.017Z,2.25
2019-06-20T02:00:18.818Z,2.37
2019-06-20T02:02:47.239Z,2.30
2019-06-20T02:05:15.710Z,2.20
2019-06-20T02:07:44.135Z,2.30
2019-06-20T02:10:13.142Z,2.40
2019-06-20T02:12:41.851Z,2.70
2019-06-20T02:15:10.254Z,2.90
2019-06-20T02:17:38.681Z,2.70
2019-06-20T02:20:07.921Z,3.00
2019-06-20T02:22:37.253Z,2.60
2019-06-20T02:25:07.201Z,2.90
2019-06-20T02:27:35.988Z,2.83
2019-06-20T02:30:05.863Z,2.90
2019-06-20T02:32:34.277Z,3.52
2019-06-20T02:35:03.065Z,3.87
2019-06-20T02:37:31.473Z,3.83
2019-06-20T02:39:59.869Z,3.80
2019-06-20T02:42:28.280Z,3.77
2019-06-20T02:44:56.678Z,3.97
2019-06-20T02:47:25.591Z,4.35
2019-06-20T02:49:54.002Z,3.65
2019-06-20T02:52:22.854Z,4.42
2019-06-20T02:54:51.267Z,3.70
2019-06-20T02:57:19.663Z,3.70
2019-06-20T02:59:48.094Z,3.83
2019-06-20T03:02:16.491Z,4.17
2019-06-20T03:04:45.719Z,4.85
2019-06-20T03:07:14.311Z,4.53
2019-06-20T03:09:42.717Z,4.83
2019-06-20T03:12:11.113Z,4.77
2019-06-20T03:14:45.477Z,5.03
2019-06-20T03:17:09.658Z,4.60
2019-06-20T03:19:38.392Z,4.33
2019-06-20T03:22:06.855Z,4.58
2019-06-20T03:24:35.249Z,5.15
2019-06-20T03:27:03.653Z,4.20
2019-06-20T03:29:32.053Z,5.67
2019-06-20T03:32:00.483Z,5.50
2019-06-20T03:34:28.879Z,5.37
2019-06-20T03:36:57.550Z,5.20
2019-06-20T03:39:25.954Z,5.70
2019-06-20T03:41:54.988Z,5.05
2019-06-20T03:44:23.393Z,6.22
2019-06-20T03:46:51.788Z,6.33
2019-06-20T03:49:20.572Z,6.70
2019-06-20T03:51:51.664Z,6.45
2019-06-20T03:54:19.381Z,6.45
2019-06-20T03:56:47.784Z,6.30
2019-06-20T03:59:16.201Z,6.60
2019-06-20T04:01:44.627Z,6.90
2019-06-20T04:04:13.047Z,6.58
2019-06-20T04:06:41.441Z,7.67
2019-06-20T04:09:09.854Z,7.12
2019-06-20T04:11:38.258Z,7.03
2019-06-20T04:14:06.789Z,6.78
2019-06-20T04:16:35.599Z,7.00
2019-06-20T04:19:04.093Z,8.33
2019-06-20T04:21:32.527Z,8.00
2019-06-20T04:24:01.016Z,7.35
2019-06-20T04:26:30.054Z,7.72
2019-06-20T04:28:58.463Z,7.40
2019-06-20T04:31:26.872Z,8.03
2019-06-20T04:33:55.274Z,8.23
2019-06-20T04:36:23.670Z,8.70
2019-06-20T04:38:52.081Z,8.98
2019-06-20T04:41:20.722Z,9.35
2019-06-20T04:43:49.105Z,9.03
2019-06-20T04:46:19.167Z,9.13
2019-06-20T04:48:47.602Z,8.63
2019-06-20T04:51:16.113Z,8.93
2019-06-20T04:53:44.588Z,9.18
2019-06-20T04:56:12.997Z,9.00
2019-06-20T04:58:41.407Z,9.25
2019-06-20T05:01:09.890Z,10.28
2019-06-20T05:03:38.311Z,9.33
2019-06-20T05:06:06.811Z,10.15
2019-06-20T05:08:35.291Z,9.88
2019-06-20T05:11:03.741Z,10.18
2019-06-20T05:13:32.173Z,11.30
2019-06-20T05:16:00.562Z,11.48
2019-06-20T05:18:28.975Z,10.60
2019-06-20T05:20:57.392Z,11.08
2019-06-20T05:23:25.797Z,10.35
2019-06-20T05:25:54.316Z,11.08
2019-06-20T05:28:22.980Z,10.00
2019-06-20T05:30:51.484Z,9.93
2019-06-20T05:33:19.955Z,9.80
2019-06-20T05:35:48.452Z,10.57
2019-06-20T05:38:16.860Z,10.08
2019-06-20T05:40:46.234Z,10.78
2019-06-20T05:43:14.649Z,10.40
2019-06-20T05:45:46.210Z,10.35
2019-06-20T05:48:13.181Z,10.23
2019-06-20T05:50:41.768Z,10.48
2019-06-20T05:53:10.693Z,10.40
2019-06-20T05:55:39.281Z,10.88
2019-06-20T05:58:07.751Z,9.98
2019-06-20T06:00:36.170Z,9.78
2019-06-20T06:03:07.164Z,9.23
2019-06-20T06:05:34.711Z,9.26
2019-06-20T06:08:04.397Z,9.15
2019-06-20T06:10:32.826Z,8.78
2019-06-20T06:13:01.237Z,8.53
2019-06-20T06:15:29.665Z,8.00
2019-06-20T06:17:58.062Z,7.20
2019-06-20T06:20:27.385Z,7.50
2019-06-20T06:22:55.794Z,7.42
2019-06-20T06:25:24.215Z,7.50
2019-06-20T06:27:52.666Z,7.47
2019-06-20T06:30:21.353Z,6.62
2019-06-20T06:32:49.765Z,6.60
2019-06-20T06:35:18.610Z,5.97
2019-06-20T06:37:47.011Z,6.45
2019-06-20T06:40:15.853Z,6.03
2019-06-20T06:42:44.290Z,7.50
2019-06-20T06:45:13.594Z,6.80
2019-06-20T06:47:42.086Z,7.50
2019-06-20T06:50:12.020Z,7.53
2019-06-20T06:52:40.428Z,7.20
2019-06-20T06:55:09.186Z,7.63
2019-06-20T06:57:38.151Z,7.55
2019-06-20T07:00:14.197Z,7.50
2019-06-20T07:02:42.602Z,7.90
2019-06-20T07:05:11.346Z,8.15
2019-06-20T07:07:39.751Z,7.75
2019-06-20T07:10:10.157Z,6.97
2019-06-20T07:12:38.817Z,7.10
2019-06-20T07:15:08.875Z,6.37
2019-06-20T07:17:37.276Z,6.90
2019-06-20T07:20:07.010Z,7.40
2019-06-20T07:22:36.110Z,7.17
2019-06-20T07:25:06.926Z,7.22
2019-06-20T07:27:35.514Z,7.53
2019-06-20T07:30:09.253Z,7.62
2019-06-20T07:32:44.888Z,6.78
2019-06-20T07:35:15.111Z,7.47
2019-06-20T07:37:43.632Z,7.57
2019-06-20T07:40:12.693Z,7.05
2019-06-20T07:42:41.119Z,6.97
2019-06-20T07:45:10.474Z,6.67
2019-06-20T07:47:39.084Z,7.08
2019-06-20T07:50:09.834Z,6.87
2019-06-20T07:52:38.303Z,6.40
2019-06-20T07:55:07.952Z,6.08
2019-06-20T07:57:36.431Z,6.20
2019-06-20T08:00:09.448Z,6.17
2019-06-20T08:02:37.851Z,6.08
2019-06-20T08:05:06.901Z,6.05
2019-06-20T08:07:35.497Z,5.75
2019-06-20T08:10:07.144Z,6.10
2019-06-20T08:12:35.620Z,6.45
2019-06-20T08:15:15.043Z,6.15
2019-06-20T08:17:36.689Z,6.00
2019-06-20T08:20:08.335Z,6.10
2019-06-20T08:22:36.946Z,6.03
2019-06-20T08:25:06.380Z,5.87
2019-06-20T08:27:55.976Z,5.05
2019-06-20T08:30:29.618Z,4.92
2019-06-20T08:33:01.102Z,4.87
2019-06-20T08:39:09.695Z,4.83
2019-06-20T08:41:40.900Z,4.90
2019-06-20T08:44:32.027Z,4.75
2019-06-20T08:47:01.195Z,4.53
2019-06-20T08:49:31.229Z,5.12
2019-06-20T08:51:59.724Z,4.75
2019-06-20T08:54:28.221Z,4.65
2019-06-20T08:56:59.052Z,4.05
2019-06-20T08:59:27.463Z,4.50
2019-06-20T09:05:05.635Z,4.45
2019-06-20T09:07:34.264Z,4.07
2019-06-20T09:10:04.286Z,4.65
2019-06-20T09:12:32.875Z,4.40
2019-06-20T09:15:01.367Z,4.30
2019-06-20T09:17:29.811Z,4.22
2019-06-20T09:19:58.287Z,4.28
2019-06-20T09:25:53.442Z,3.90
2019-06-20T09:28:22.235Z,4.10
2019-06-20T09:30:51.885Z,4.45
2019-06-20T09:33:20.840Z,4.45
2019-06-20T09:35:49.246Z,4.05
2019-06-20T09:38:17.633Z,3.80
2019-06-20T09:40:46.104Z,3.83
2019-06-20T09:43:26.731Z,3.75
2019-06-20T09:45:44.637Z,4.03
2019-06-20T09:48:13.034Z,3.47
2019-06-20T09:50:41.443Z,4.17
2019-06-20T09:53:10.054Z,4.10
2019-06-20T09:55:38.527Z,3.80
2019-06-20T09:58:06.936Z,3.58
2019-06-20T10:00:36.509Z,3.58
2019-06-20T10:03:05.605Z,3.70
2019-06-20T10:05:34.282Z,3.67
2019-06-20T10:08:02.677Z,3.67
2019-06-20T10:10:32.937Z,3.83
2019-06-20T10:13:01.333Z,3.60
2019-06-20T10:15:32.849Z,3.77
2019-06-20T10:18:01.486Z,3.70
2019-06-20T10:20:30.374Z,3.72
2019-06-20T10:22:58.792Z,3.47
2019-06-20T10:25:27.262Z,3.80
2019-06-20T10:27:55.916Z,3.37
2019-06-20T10:30:26.674Z,3.30
2019-06-20T10:32:55.382Z,3.40
2019-06-20T10:35:23.865Z,3.50
2019-06-20T10:37:52.970Z,3.50
2019-06-20T10:40:21.982Z,3.40
2019-06-20T10:42:50.391Z,3.55
2019-06-20T10:45:20.782Z,3.62
2019-06-20T10:47:50.796Z,3.70
2019-06-20T10:50:19.943Z,4.10
2019-06-20T10:52:49.983Z,3.70
2019-06-20T10:55:19.160Z,3.33
2019-06-20T10:57:49.636Z,3.52
2019-06-20T11:00:30.384Z,3.42
2019-06-20T11:02:49.127Z,3.70
2019-06-20T11:05:18.584Z,3.45
2019-06-20T11:07:47.548Z,3.87
2019-06-20T11:10:17.876Z,3.27
2019-06-20T11:12:52.955Z,3.50
2019-06-20T11:15:18.573Z,4.13
2019-06-20T11:17:48.457Z,3.20
2019-06-20T11:20:17.693Z,3.20
2019-06-20T11:22:47.588Z,3.13
2019-06-20T11:25:19.163Z,3.40
2019-06-20T11:27:47.342Z,3.10
2019-06-20T11:30:18.530Z,2.92
2019-06-20T11:32:48.751Z,3.30
2019-06-20T11:35:17.241Z,3.30
2019-06-20T11:37:47.067Z,3.00
2019-06-20T11:40:17.527Z,2.77
2019-06-20T11:42:46.929Z,2.60
2019-06-20T11:45:16.018Z,2.92
2019-06-20T11:47:44.394Z,2.85
2019-06-20T11:50:13.230Z,2.72
2019-06-20T11:52:45.367Z,2.90
2019-06-20T11:55:13.197Z,2.72
2019-06-20T11:57:41.661Z,3.00
2019-06-20T12:00:10.997Z,3.00
2019-06-20T12:02:40.508Z,2.55
2019-06-20T12:05:11.424Z,3.15
2019-06-20T12:07:41.530Z,3.50
2019-06-20T12:10:12.075Z,3.27
2019-06-20T12:12:41.005Z,3.43
2019-06-20T12:15:10.590Z,3.10
2019-06-20T12:17:41.011Z,3.33
2019-06-20T12:20:11.216Z,3.33
2019-06-20T12:22:41.323Z,3.27
2019-06-20T12:25:11.457Z,3.15
2019-06-20T12:27:40.768Z,3.15
2019-06-20T12:30:14.345Z,2.83
2019-06-20T12:32:42.815Z,3.27
2019-06-20T12:35:11.955Z,3.72
2019-06-20T12:37:40.627Z,3.98
2019-06-20T12:40:09.850Z,3.85
2019-06-20T12:42:40.986Z,3.83
2019-06-20T12:45:09.430Z,4.50
2019-06-20T12:47:38.783Z,3.60
2019-06-20T12:50:08.692Z,4.20
2019-06-20T12:52:37.654Z,3.80
2019-06-20T12:55:07.361Z,4.00
2019-06-20T12:57:35.779Z,4.15
2019-06-20T13:00:07.573Z,4.25
2019-06-20T13:02:37.021Z,5.08
2019-06-20T13:05:07.057Z,4.20
2019-06-20T13:07:35.465Z,4.90
2019-06-20T13:10:07.092Z,4.35
2019-06-20T13:12:35.491Z,4.33
2019-06-20T13:15:04.830Z,4.65
2019-06-20T13:17:34.391Z,4.55
2019-06-20T13:20:03.498Z,5.17
2019-06-20T13:22:31.945Z,6.05
2019-06-20T13:25:00.364Z,5.67
2019-06-20T13:27:28.788Z,5.53
2019-06-20T13:29:57.208Z,5.80
2019-06-20T13:32:25.769Z,6.22
2019-06-20T13:34:54.176Z,6.10
2019-06-20T13:37:22.566Z,6.90
2019-06-20T13:39:51.047Z,6.80
2019-06-20T13:42:19.544Z,6.92
2019-06-20T13:44:48.271Z,7.40
2019-06-20T13:47:16.703Z,7.27
2019-06-20T13:49:45.842Z,7.62
2019-06-20T13:52:14.285Z,7.36
2019-06-20T13:54:44.378Z,7.75
2019-06-20T13:57:13.117Z,8.53
2019-06-20T13:59:41.688Z,8.13
2019-06-20T14:02:10.346Z,8.00
2019-06-20T14:04:41.037Z,7.90
2019-06-20T14:07:08.965Z,8.48
2019-06-20T14:09:37.503Z,8.05
2019-06-20T14:12:05.939Z,8.05
2019-06-20T14:14:34.362Z,8.75
2019-06-20T14:17:02.836Z,8.25
2019-06-20T14:19:31.276Z,8.33
2019-06-20T14:21:59.679Z,8.78
2019-06-20T14:24:28.220Z,7.97
2019-06-20T14:26:56.734Z,8.00
2019-06-20T14:29:25.225Z,8.05
2019-06-20T14:31:53.929Z,9.00
2019-06-20T14:34:22.344Z,9.10
2019-06-20T14:36:52.137Z,8.88
2019-06-20T14:39:21.033Z,8.53
2019-06-20T14:41:51.301Z,7.87
2019-06-20T14:44:19.597Z,7.10
2019-06-20T14:46:48.946Z,7.97
2019-06-20T14:49:17.364Z,7.62
2019-06-20T14:51:47.141Z,6.92
2019-06-20T14:54:15.889Z,6.22
2019-06-20T14:56:44.999Z,5.83
2019-06-20T14:59:14.419Z,5.93
2019-06-20T15:01:44.614Z,4.90
2019-06-20T15:04:12.965Z,5.25
2019-06-20T15:06:41.457Z,4.45
2019-06-20T15:09:09.870Z,4.22
2019-06-20T15:11:38.302Z,5.45
2019-06-20T15:14:06.851Z,3.98
2019-06-20T15:16:35.275Z,4.03
2019-06-20T15:19:03.685Z,4.63
2019-06-20T15:21:32.124Z,4.75
2019-06-20T15:24:00.562Z,4.95
2019-06-20T15:26:28.981Z,4.58
2019-06-20T15:28:57.727Z,4.00
2019-06-20T15:31:26.137Z,4.20
2019-06-20T15:33:55.168Z,4.57
2019-06-20T15:36:23.720Z,3.58
2019-06-20T15:38:53.051Z,3.90
2019-06-20T15:41:21.672Z,3.42
2019-06-20T15:43:51.654Z,3.58
2019-06-20T15:46:20.310Z,3.35
2019-06-20T15:48:48.732Z,3.20
2019-06-20T15:51:17.184Z,3.15
2019-06-20T15:53:45.598Z,3.23
2019-06-20T15:56:14.114Z,2.80
2019-06-20T15:58:42.588Z,3.33
2019-06-20T16:01:11.039Z,2.52
2019-06-20T16:03:39.495Z,2.80
2019-06-20T16:06:07.886Z,2.55
2019-06-20T16:08:36.589Z,2.50
2019-06-20T16:11:05.098Z,2.50
2019-06-20T16:13:33.556Z,2.62
2019-06-20T16:16:01.995Z,2.40
2019-06-20T16:18:30.484Z,2.22
2019-06-20T16:20:58.879Z,2.77
2019-06-20T16:23:27.293Z,1.83
2019-06-20T16:25:55.707Z,2.58
2019-06-20T16:28:24.180Z,2.70
2019-06-20T16:31:05.204Z,2.15
2019-06-20T16:33:25.768Z,2.60
2019-06-20T16:35:54.243Z,2.52
2019-06-20T16:38:22.651Z,2.15
2019-06-20T16:40:51.130Z,2.27
2019-06-20T16:43:19.542Z,2.80
2019-06-20T16:45:47.933Z,2.33
2019-06-20T16:48:16.348Z,2.60
2019-06-20T16:50:44.822Z,2.47
2019-06-20T16:53:13.230Z,2.72
2019-06-20T16:55:41.708Z,2.70
2019-06-20T16:58:10.392Z,2.80
2019-06-20T17:00:38.865Z,2.50
2019-06-20T17:03:07.568Z,2.67
2019-06-20T17:05:36.043Z,2.67
2019-06-20T17:08:05.296Z,2.90
2019-06-20T17:10:33.786Z,2.70
2019-06-20T17:13:02.182Z,2.65
2019-06-20T17:15:30.695Z,2.70
2019-06-20T17:17:59.111Z,2.75
2019-06-20T17:20:27.514Z,2.60
2019-06-20T17:22:55.922Z,2.90
2019-06-20T17:25:24.420Z,3.30
2019-06-20T17:27:52.942Z,3.10
2019-06-20T17:30:22.241Z,2.90
2019-06-20T17:32:50.643Z,3.05
2019-06-20T17:35:19.631Z,2.83
2019-06-20T17:37:48.040Z,3.12
2019-06-20T17:40:17.375Z,2.50
2019-06-20T17:42:46.757Z,2.93
2019-06-20T17:45:15.792Z,3.23
2019-06-20T17:47:44.204Z,3.08
2019-06-20T17:50:15.695Z,3.20
2019-06-20T17:52:44.664Z,3.20
2019-06-20T17:55:13.591Z,3.25
2019-06-20T17:57:42.008Z,3.22
2019-06-20T18:00:18.457Z,3.17
2019-06-20T18:02:46.881Z,2.90
2019-06-20T18:05:16.985Z,3.15
2019-06-20T18:07:45.484Z,3.12
2019-06-20T18:10:15.586Z,3.10
2019-06-20T18:12:43.993Z,3.60
2019-06-20T18:15:14.251Z,3.35
2019-06-20T18:17:42.706Z,3.50
2019-06-20T18:20:12.978Z,3.10
2019-06-20T18:22:42.019Z,3.45
2019-06-20T18:25:10.768Z,3.10
2019-06-20T18:27:39.175Z,3.45
2019-06-20T18:30:09.920Z,3.12
2019-06-20T18:32:38.358Z,3.20
2019-06-20T18:35:07.724Z,3.42
2019-06-20T18:37:36.123Z,3.62
2019-06-20T18:40:07.798Z,3.47
2019-06-20T18:42:36.222Z,3.67
2019-06-20T18:45:06.260Z,3.87
2019-06-20T18:48:00.314Z,3.70
2019-06-20T18:50:28.714Z,3.65
2019-06-20T18:52:57.135Z,3.53
2019-06-20T18:55:25.701Z,3.50
2019-06-20T18:57:54.197Z,4.58
2019-06-20T19:00:34.154Z,4.25
2019-06-20T19:02:53.923Z,4.42
2019-06-20T19:05:22.928Z,4.40
2019-06-20T19:07:51.510Z,4.45
2019-06-20T19:10:23.485Z,4.15
2019-06-20T19:12:52.098Z,4.08
2019-06-20T19:15:22.007Z,3.76
2019-06-20T19:17:50.470Z,4.00
2019-06-20T19:20:19.687Z,3.72
2019-06-20T19:22:48.336Z,4.03
2019-06-20T19:25:20.982Z,4.75
2019-06-20T19:27:49.415Z,4.55
2019-06-20T19:30:18.447Z,3.98
2019-06-20T19:32:46.863Z,4.20
2019-06-20T19:35:15.960Z,4.05
2019-06-20T19:37:44.397Z,3.90
2019-06-20T19:40:13.353Z,4.10
2019-06-20T19:42:41.761Z,4.67
2019-06-20T19:45:11.194Z,4.30
2019-06-20T19:47:40.357Z,4.00
2019-06-20T19:50:10.308Z,3.85
2019-06-20T19:52:39.041Z,4.53
2019-06-20T19:55:07.922Z,4.20
2019-06-20T19:57:36.425Z,4.10
2019-06-20T20:00:09.530Z,4.55
2019-06-20T20:02:37.992Z,4.55
2019-06-20T20:05:18.453Z,4.83
2019-06-20T20:07:38.146Z,4.03
2019-06-20T20:10:08.178Z,4.50
2019-06-20T20:12:36.627Z,4.20
2019-06-20T20:15:07.371Z,4.37
2019-06-20T20:17:35.782Z,3.97
2019-06-20T20:20:08.506Z,4.25
2019-06-20T20:22:36.905Z,4.90
2019-06-20T20:25:07.970Z,4.70
2019-06-20T20:27:36.388Z,4.50
2019-06-20T20:30:11.337Z,4.00
2019-06-20T20:32:39.811Z,5.03
2019-06-20T20:35:08.656Z,5.53
2019-06-20T20:37:37.068Z,5.30
2019-06-20T20:40:10.649Z,5.37
2019-06-20T20:42:39.061Z,5.60
2019-06-20T20:45:08.053Z,5.65
2019-06-20T20:47:36.461Z,6.22
2019-06-20T20:50:08.841Z,6.40
2019-06-20T20:52:37.229Z,5.70
2019-06-20T20:55:08.190Z,6.50
2019-06-20T20:57:36.619Z,5.85
2019-06-20T21:00:23.075Z,6.20
2019-06-20T21:02:51.810Z,6.15
2019-06-20T21:05:20.276Z,6.72
2019-06-20T21:07:48.789Z,6.53
2019-06-20T21:10:17.594Z,6.80
2019-06-20T21:12:46.012Z,6.20
2019-06-20T21:15:14.696Z,6.47
2019-06-20T21:17:43.164Z,7.08
2019-06-20T21:20:11.726Z,7.62
2019-06-20T21:22:40.241Z,6.80
2019-06-20T21:25:08.982Z,8.25
2019-06-20T21:27:38.374Z,7.65
2019-06-20T21:30:09.048Z,8.60
2019-06-20T21:32:37.470Z,8.63
2019-06-20T21:35:07.704Z,8.30
2019-06-20T21:37:36.125Z,8.33
2019-06-20T21:40:06.360Z,8.95
2019-06-20T21:42:34.778Z,8.40
2019-06-20T21:45:04.354Z,8.63
2019-06-20T21:47:32.812Z,8.18
2019-06-20T21:50:09.037Z,8.20
2019-06-20T21:52:37.936Z,8.73
2019-06-20T21:55:07.382Z,8.60
2019-06-20T21:57:35.788Z,9.15
2019-06-20T22:00:13.148Z,9.48
2019-06-20T22:02:41.695Z,9.63
2019-06-20T22:05:10.455Z,9.43
2019-06-20T22:07:38.860Z,9.48
2019-06-20T22:10:07.897Z,9.00
2019-06-20T22:12:36.307Z,9.53
2019-06-20T22:15:09.598Z,9.53
2019-06-20T22:17:38.150Z,9.43
2019-06-20T22:20:08.310Z,9.48
2019-06-20T22:22:36.778Z,10.13
2019-06-20T22:25:07.286Z,9.10
2019-06-20T22:27:35.771Z,9.70
2019-06-20T22:30:07.724Z,9.05
2019-06-20T22:32:36.158Z,9.83
2019-06-20T22:35:06.953Z,9.78
2019-06-20T22:37:35.368Z,10.30
2019-06-20T22:40:06.383Z,9.55
2019-06-20T22:42:34.763Z,10.05
2019-06-20T22:45:07.142Z,10.50
2019-06-20T22:47:35.242Z,8.83
2019-06-20T22:50:07.487Z,10.03
2019-06-20T22:52:35.893Z,9.58
2019-06-20T22:55:06.051Z,8.90
2019-06-20T22:57:34.459Z,9.90
2019-06-20T23:00:04.517Z,10.48
2019-06-20T23:02:32.899Z,10.03
2019-06-20T23:05:01.450Z,10.85
2019-06-20T23:07:29.905Z,10.40
2019-06-20T23:10:09.681Z,10.30
2019-06-20T23:12:28.454Z,9.10
2019-06-20T23:14:57.118Z,10.72
2019-06-20T23:17:25.793Z,8.80
2019-06-20T23:19:54.266Z,10.03
2019-06-20T23:22:22.708Z,9.73
2019-06-20T23:24:51.109Z,9.10
2019-06-20T23:27:19.522Z,10.07
2019-06-20T23:29:47.952Z,9.90
2019-06-20T23:32:16.627Z,9.75
2019-06-20T23:34:45.058Z,8.40
2019-06-20T23:37:13.743Z,9.98
2019-06-20T23:39:42.302Z,10.08
2019-06-20T23:42:11.198Z,10.38
2019-06-20T23:44:39.598Z,10.23
2019-06-20T23:47:08.057Z,11.48
2019-06-20T23:49:36.454Z,11.45
2019-06-20T23:52:06.529Z,13.38
2019-06-20T23:54:34.938Z,12.10
2019-06-20T23:57:03.346Z,10.35
2019-06-20T23:59:31.760Z,10.03
